Time;durP1;ratioP1;P1;durP2;ratioP2;P2;SDS_P1;SDS_P2;PMS_P1;PMS_P2;Temp;Humidity;BMP_temperature;BMP_pressure;BME280_temperature;BME280_humidity;BME280_pressure;Samples;Min_cycle;Max_cycle;Signal;HPM_P1;HPM_P2
2023/06/06 00:02:21;;;;;;;13.93;9.02;;;9.40;99.90;;;;;;5069665;28;20357;-36
2023/06/06 00:04:49;;;;;;;13.63;9.52;;;9.40;99.90;;;;;;5069862;28;20392;-40
2023/06/06 00:07:16;;;;;;;11.45;8.32;;;9.30;99.90;;;;;;5069338;28;20547;-36
2023/06/06 00:09:43;;;;;;;9.95;8.25;;;9.30;99.90;;;;;;5069892;28;20744;-40
2023/06/06 00:12:12;;;;;;;9.95;7.70;;;9.30;99.90;;;;;;5068689;28;20040;-39
2023/06/06 00:14:42;;;;;;;12.75;8.75;;;9.30;99.90;;;;;;5066892;28;20054;-41
2023/06/06 00:17:09;;;;;;;12.77;8.50;;;9.30;99.90;;;;;;5068776;28;20464;-38
2023/06/06 00:19:40;;;;;;;12.82;8.93;;;9.30;99.90;;;;;;5067855;28;20508;-35
2023/06/06 00:22:07;;;;;;;12.98;9.45;;;9.30;99.90;;;;;;5071084;28;20109;-41
2023/06/06 00:24:32;;;;;;;16.77;8.80;;;9.30;99.90;;;;;;5070951;28;20744;-38
2023/06/06 00:26:58;;;;;;;14.27;8.95;;;9.30;99.90;;;;;;5072813;28;20043;-40
2023/06/06 00:29:24;;;;;;;11.40;8.38;;;9.30;99.90;;;;;;5073034;28;20116;-38
2023/06/06 00:31:49;;;;;;;14.27;8.25;;;9.30;99.90;;;;;;5054505;28;20079;-37
2023/06/06 00:34:15;;;;;;;12.23;8.52;;;9.40;99.90;;;;;;5073831;28;20097;-40
2023/06/06 00:36:41;;;;;;;10.90;9.13;;;9.30;99.90;;;;;;5071959;28;20040;-36
2023/06/06 00:39:07;;;;;;;12.07;9.02;;;9.30;99.90;;;;;;5069916;28;20032;-39
2023/06/06 00:41:32;;;;;;;14.48;9.27;;;9.30;99.90;;;;;;5070899;28;20036;-40
2023/06/06 00:43:58;;;;;;;11.02;8.63;;;9.30;99.90;;;;;;5071217;28;20109;-38
2023/06/06 00:46:24;;;;;;;12.95;8.77;;;9.30;99.90;;;;;;5072538;28;20059;-37
2023/06/06 00:48:51;;;;;;;9.25;8.25;;;9.20;99.90;;;;;;5071967;28;20067;-37
2023/06/06 00:51:17;;;;;;;10.93;7.78;;;9.20;99.90;;;;;;5052280;28;20063;-41
2023/06/06 00:53:44;;;;;;;8.57;6.40;;;9.00;99.90;;;;;;5073416;28;20036;-38
2023/06/06 00:56:13;;;;;;;9.02;7.20;;;9.00;99.90;;;;;;5072597;28;20391;-37
2023/06/06 00:58:40;;;;;;;10.20;7.35;;;8.90;99.90;;;;;;5070356;28;20475;-38
2023/06/06 01:01:06;;;;;;;10.65;7.63;;;8.90;99.90;;;;;;5072349;28;20040;-39
2023/06/06 01:03:34;;;;;;;11.38;7.50;;;8.80;99.90;;;;;;5072921;28;20505;-40
2023/06/06 01:06:01;;;;;;;10.43;8.18;;;8.80;99.90;;;;;;5069392;28;20466;-40
2023/06/06 01:08:26;;;;;;;9.50;7.93;;;8.80;99.90;;;;;;5071788;28;20072;-39
2023/06/06 01:11:06;;;;;;;10.77;8.35;;;8.80;99.90;;;;;;5071381;28;20135;-40
2023/06/06 01:13:47;;;;;;;10.60;8.57;;;8.80;99.90;;;;;;5072872;28;20036;-40
2023/06/06 01:16:18;;;;;;;15.57;9.95;;;8.80;99.90;;;;;;5072658;28;20837;-40
2023/06/06 01:18:45;;;;;;;14.30;10.45;;;8.80;99.90;;;;;;5070956;28;20036;-41
2023/06/06 01:21:12;;;;;;;13.50;9.57;;;8.80;99.90;;;;;;5071172;28;20128;-42
2023/06/06 01:23:38;;;;;;;11.05;9.80;;;8.80;99.90;;;;;;5072588;28;20047;-38
2023/06/06 01:26:07;;;;;;;12.20;10.52;;;8.80;99.90;;;;;;5072217;28;20039;-36
2023/06/06 01:28:33;;;;;;;13.18;10.23;;;8.80;99.90;;;;;;5071359;28;20113;-36
2023/06/06 01:30:59;;;;;;;10.55;9.20;;;8.80;99.90;;;;;;5071247;28;20461;-37
2023/06/06 01:33:35;;;;;;;17.73;10.48;;;8.80;99.90;;;;;;5070777;28;20075;-36
2023/06/06 01:36:11;;;;;;;13.65;9.45;;;8.80;99.90;;;;;;5071427;28;20555;-36
2023/06/06 01:38:44;;;;;;;15.10;10.73;;;8.80;99.90;;;;;;5066117;28;20563;-39
2023/06/06 01:41:14;;;;;;;12.80;10.45;;;8.80;99.90;;;;;;5069718;28;20519;-36
2023/06/06 01:43:41;;;;;;;18.30;11.75;;;8.80;99.90;;;;;;5072185;28;20123;-39
2023/06/06 01:46:08;;;;;;;12.85;10.73;;;8.80;99.90;;;;;;5071814;28;20075;-39
2023/06/06 01:48:35;;;;;;;18.38;11.18;;;8.80;99.90;;;;;;5071175;28;20040;-37
2023/06/06 01:51:02;;;;;;;13.60;10.57;;;8.80;99.90;;;;;;5070643;28;20055;-41
2023/06/06 01:53:27;;;;;;;15.07;10.70;;;8.80;99.90;;;;;;5071801;28;20044;-39
2023/06/06 01:55:54;;;;;;;20.70;10.50;;;8.90;99.90;;;;;;5070372;28;20039;-39
2023/06/06 01:58:20;;;;;;;14.95;10.32;;;8.80;99.90;;;;;;5069334;28;20058;-36
2023/06/06 02:00:46;;;;;;;13.68;10.10;;;8.80;99.90;;;;;;5066833;28;20048;-38
2023/06/06 02:03:11;;;;;;;14.70;10.15;;;8.90;99.90;;;;;;5070207;28;20091;-38
2023/06/06 02:05:37;;;;;;;13.38;9.95;;;8.90;99.90;;;;;;5071666;28;20047;-38
2023/06/06 02:08:03;;;;;;;14.15;9.75;;;8.90;99.90;;;;;;5052621;28;20083;-40
2023/06/06 02:10:29;;;;;;;17.85;10.05;;;8.90;99.90;;;;;;5074863;28;20506;-38
2023/06/06 02:12:54;;;;;;;16.20;10.02;;;8.90;99.90;;;;;;5076218;28;20032;-35
2023/06/06 02:15:21;;;;;;;16.55;10.98;;;8.90;99.90;;;;;;5075837;28;20430;-36
2023/06/06 02:17:48;;;;;;;15.38;11.15;;;8.90;99.90;;;;;;5073862;28;20052;-40
2023/06/06 02:20:14;;;;;;;14.88;10.43;;;8.80;99.90;;;;;;5075708;28;20464;-39
2023/06/06 02:22:40;;;;;;;13.52;10.32;;;8.80;99.90;;;;;;5075433;28;20084;-35
2023/06/06 02:25:06;;;;;;;13.88;10.63;;;8.80;99.90;;;;;;5074679;28;20407;-41
2023/06/06 02:27:36;;;;;;;15.07;11.27;;;8.80;99.90;;;;;;5074275;28;20515;-39
2023/06/06 02:30:10;;;;;;;14.63;11.05;;;8.80;99.90;;;;;;5074199;28;20413;-39
2023/06/06 02:32:35;;;;;;;18.83;10.57;;;8.80;99.90;;;;;;5057470;28;20048;-36
2023/06/06 02:35:03;;;;;;;14.07;9.85;;;8.80;99.90;;;;;;5075184;28;20450;-38
2023/06/06 02:37:30;;;;;;;15.70;10.75;;;8.70;99.90;;;;;;5064851;28;20156;-40
2023/06/06 02:39:56;;;;;;;20.95;11.10;;;8.70;99.90;;;;;;5060224;28;20044;-35
2023/06/06 02:42:21;;;;;;;12.40;10.25;;;8.70;99.90;;;;;;5072957;28;20469;-38
2023/06/06 02:44:47;;;;;;;16.55;10.25;;;8.70;99.90;;;;;;5067822;28;20418;-40
2023/06/06 02:47:12;;;;;;;16.80;10.45;;;8.70;99.90;;;;;;5072514;28;20051;-40
2023/06/06 02:49:39;;;;;;;15.15;11.35;;;8.70;99.90;;;;;;5068111;28;20044;-40
2023/06/06 02:52:05;;;;;;;13.82;11.68;;;8.70;99.90;;;;;;5074253;28;20468;-37
2023/06/06 02:54:31;;;;;;;17.65;11.57;;;8.70;99.90;;;;;;5074371;28;20052;-37
2023/06/06 02:56:57;;;;;;;18.73;10.93;;;8.80;99.90;;;;;;5074131;28;20040;-38
2023/06/06 02:59:22;;;;;;;15.38;11.13;;;8.80;99.90;;;;;;5074191;28;20039;-40
2023/06/06 03:01:48;;;;;;;16.08;11.18;;;8.90;99.90;;;;;;5074025;28;20048;-38
2023/06/06 03:04:14;;;;;;;16.70;11.02;;;8.80;99.90;;;;;;5073746;28;20653;-36
2023/06/06 03:06:41;;;;;;;14.43;10.50;;;8.70;99.90;;;;;;5073421;28;20044;-37
2023/06/06 03:09:09;;;;;;;16.23;10.75;;;8.60;99.90;;;;;;5055566;28;20486;-40
2023/06/06 03:11:35;;;;;;;18.10;11.10;;;8.60;99.90;;;;;;5073704;28;20058;-42
2023/06/06 03:14:01;;;;;;;17.85;11.88;;;8.60;99.90;;;;;;5073609;28;20140;-40
2023/06/06 03:16:28;;;;;;;16.15;11.27;;;8.70;99.90;;;;;;5073158;28;20043;-39
2023/06/06 03:18:55;;;;;;;15.40;10.82;;;8.70;99.90;;;;;;5072723;28;20896;-36
2023/06/06 03:21:20;;;;;;;15.02;10.35;;;8.70;99.90;;;;;;5073246;28;20525;-36
2023/06/06 03:23:47;;;;;;;17.27;11.77;;;8.70;99.90;;;;;;5073826;28;20055;-40
2023/06/06 03:26:13;;;;;;;16.88;11.27;;;8.70;99.90;;;;;;5074206;28;20524;-37
2023/06/06 03:28:39;;;;;;;15.35;11.60;;;8.80;99.90;;;;;;5073050;28;20047;-39
2023/06/06 03:31:06;;;;;;;16.70;10.90;;;8.80;99.90;;;;;;5071667;28;20086;-39
2023/06/06 03:33:32;;;;;;;17.23;11.45;;;8.90;99.90;;;;;;5073447;28;20048;-40
2023/06/06 03:35:59;;;;;;;18.85;11.35;;;8.90;99.90;;;;;;5073620;28;20055;-39
2023/06/06 03:38:25;;;;;;;15.25;11.43;;;9.00;99.90;;;;;;5057661;28;20117;-39
2023/06/06 03:40:50;;;;;;;17.10;11.15;;;9.00;99.90;;;;;;5066284;28;20048;-39
2023/06/06 03:43:16;;;;;;;16.75;10.95;;;9.10;99.90;;;;;;5065676;28;20114;-42
2023/06/06 03:45:41;;;;;;;18.15;12.02;;;9.10;99.90;;;;;;5074639;28;20040;-39
2023/06/06 03:48:09;;;;;;;16.48;11.50;;;9.20;99.90;;;;;;5071574;28;20536;-38
2023/06/06 03:50:35;;;;;;;16.58;11.07;;;9.40;99.90;;;;;;5067003;28;20047;-38
2023/06/06 03:53:02;;;;;;;17.73;11.02;;;9.70;99.90;;;;;;5073379;28;20128;-41
2023/06/06 03:55:28;;;;;;;16.27;10.45;;;10.20;99.90;;;;;;5073169;28;20404;-37
2023/06/06 03:57:54;;;;;;;14.93;10.13;;;10.70;99.90;;;;;;5079225;28;20094;-41
2023/06/06 04:00:20;;;;;;;13.82;9.55;;;11.10;99.90;;;;;;5077450;28;20127;-38
2023/06/06 04:02:49;;;;;;;12.88;9.48;;;11.50;99.90;;;;;;5076268;28;20150;-40
2023/06/06 04:05:18;;;;;;;14.38;9.50;;;11.90;99.90;;;;;;5076356;28;20044;-37
2023/06/06 04:07:44;;;;;;;13.43;10.32;;;12.30;99.90;;;;;;5075988;28;20043;-41
2023/06/06 04:10:11;;;;;;;15.18;10.00;;;12.80;99.90;;;;;;5075276;28;20035;-38
2023/06/06 04:12:38;;;;;;;13.45;9.23;;;13.20;99.90;;;;;;5075750;28;20079;-37
2023/06/06 04:15:04;;;;;;;14.32;9.65;;;13.70;99.90;;;;;;5074263;28;20052;-38
2023/06/06 04:17:29;;;;;;;13.98;9.32;;;14.00;99.90;;;;;;5073479;28;20075;-39
2023/06/06 04:19:55;;;;;;;13.10;9.60;;;14.40;99.90;;;;;;5073741;28;20406;-39
2023/06/06 04:22:24;;;;;;;12.65;9.05;;;14.70;99.90;;;;;;5074598;28;20828;-40
2023/06/06 04:24:50;;;;;;;13.73;9.45;;;15.00;99.90;;;;;;5076059;28;20135;-38
2023/06/06 04:27:17;;;;;;;12.77;9.48;;;15.30;99.90;;;;;;5074753;28;20048;-42
2023/06/06 04:29:44;;;;;;;13.38;9.15;;;15.40;99.90;;;;;;5076201;28;20114;-40
2023/06/06 04:32:10;;;;;;;11.88;8.98;;;15.40;99.90;;;;;;5075787;28;20460;-39
2023/06/06 04:34:40;;;;;;;11.13;8.88;;;15.50;99.90;;;;;;5075837;28;20079;-39
2023/06/06 04:37:07;;;;;;;14.35;9.40;;;15.70;99.90;;;;;;5071453;28;20052;-40
2023/06/06 04:39:38;;;;;;;12.30;8.52;;;16.00;99.90;;;;;;5073714;28;20052;-40
2023/06/06 04:42:05;;;;;;;10.55;9.05;;;16.60;99.90;;;;;;5075460;28;20043;-41
2023/06/06 04:44:41;;;;;;;17.02;8.88;;;17.00;99.90;;;;;;5073403;28;20048;-38
2023/06/06 04:47:08;;;;;;;11.85;8.85;;;17.30;99.90;;;;;;5074906;28;20369;-38
2023/06/06 04:49:38;;;;;;;11.88;8.70;;;17.50;99.90;;;;;;5072423;28;20048;-40
2023/06/06 04:52:10;;;;;;;14.00;8.23;;;18.10;99.90;;;;;;5075392;28;20086;-39
2023/06/06 04:54:40;;;;;;;11.07;8.68;;;18.40;99.90;;;;;;5075607;28;20109;-38
2023/06/06 04:57:15;;;;;;;11.10;8.07;;;18.50;99.90;;;;;;5071682;28;20682;-45
2023/06/06 04:59:42;;;;;;;9.32;8.15;;;18.50;99.90;;;;;;5073302;28;20067;-40
2023/06/06 05:02:07;;;;;;;10.82;8.18;;;18.80;99.90;;;;;;5075766;28;20043;-40
2023/06/06 05:04:33;;;;;;;13.40;9.27;;;18.90;99.90;;;;;;5074871;28;20494;-40
2023/06/06 05:06:59;;;;;;;9.43;8.02;;;19.30;99.90;;;;;;5072973;28;20520;-40
2023/06/06 05:09:26;;;;;;;10.65;7.60;;;19.40;99.90;;;;;;5070424;28;20135;-43
2023/06/06 05:11:53;;;;;;;11.68;8.02;;;19.40;99.90;;;;;;5054291;28;20083;-39
2023/06/06 05:14:23;;;;;;;11.10;7.72;;;19.50;99.90;;;;;;5072342;28;20461;-41
2023/06/06 05:16:53;;;;;;;11.25;7.88;;;19.80;99.90;;;;;;5072514;28;20093;-42
2023/06/06 05:19:19;;;;;;;10.85;7.97;;;20.40;99.90;;;;;;5071914;28;20044;-40
2023/06/06 05:21:46;;;;;;;15.82;7.63;;;20.20;99.90;;;;;;5072491;28;20131;-40
2023/06/06 05:24:12;;;;;;;12.27;8.05;;;20.70;99.90;;;;;;5072508;28;20473;-37
2023/06/06 05:26:37;;;;;;;10.70;7.95;;;21.00;99.90;;;;;;5071805;28;20048;-43
2023/06/06 05:29:03;;;;;;;11.65;7.20;;;21.20;99.90;;;;;;5071690;28;20032;-40
2023/06/06 05:31:29;;;;;;;13.23;7.43;;;21.50;99.90;;;;;;5071014;28;20476;-42
2023/06/06 05:33:55;;;;;;;12.40;7.30;;;21.40;99.90;;;;;;5072253;28;20032;-41
2023/06/06 05:36:21;;;;;;;11.30;7.20;;;21.70;99.90;;;;;;5069976;28;20040;-41
2023/06/06 05:38:46;;;;;;;12.82;7.30;;;21.80;99.90;;;;;;5071621;28;20507;-45
2023/06/06 05:41:13;;;;;;;12.30;8.10;;;21.50;99.90;;;;;;5071728;28;20486;-43
2023/06/06 05:43:39;;;;;;;14.20;7.45;;;21.40;99.90;;;;;;5052621;28;20040;-39
2023/06/06 05:46:05;;;;;;;14.68;7.68;;;21.40;99.90;;;;;;5069937;28;20070;-39
2023/06/06 05:48:31;;;;;;;17.63;8.02;;;22.00;99.90;;;;;;5071401;28;20119;-38
2023/06/06 05:50:57;;;;;;;12.63;8.00;;;22.60;99.90;;;;;;5069732;28;20044;-41
2023/06/06 05:53:24;;;;;;;11.18;6.78;;;22.60;99.90;;;;;;5071808;28;20036;-44
2023/06/06 05:55:50;;;;;;;10.45;6.75;;;22.60;99.90;;;;;;5070724;28;20039;-43
2023/06/06 05:58:15;;;;;;;12.27;6.97;;;22.90;99.90;;;;;;5071749;28;20551;-42
2023/06/06 06:00:41;;;;;;;11.60;7.25;;;23.10;99.90;;;;;;5069941;28;20251;-42
2023/06/06 06:03:08;;;;;;;13.70;7.88;;;24.00;99.30;;;;;;5072124;28;20043;-46
2023/06/06 06:05:34;;;;;;;12.05;6.85;;;23.90;98.30;;;;;;5071804;28;20350;-40
2023/06/06 06:08:01;;;;;;;11.85;6.60;;;23.80;98.40;;;;;;5070673;28;20039;-41
2023/06/06 06:10:36;;;;;;;9.25;6.82;;;24.60;97.80;;;;;;5071185;28;20040;-43
2023/06/06 06:13:03;;;;;;;10.60;6.88;;;23.80;97.30;;;;;;5071458;28;20039;-46
2023/06/06 06:15:33;;;;;;;11.90;6.22;;;23.50;98.20;;;;;;5071779;28;20830;-44
2023/06/06 06:18:03;;;;;;;11.68;6.80;;;23.50;97.70;;;;;;5068136;28;20040;-42
2023/06/06 06:20:29;;;;;;;7.25;5.93;;;23.20;97.70;;;;;;5070235;28;20039;-41
2023/06/06 06:22:54;;;;;;;15.18;7.20;;;23.10;98.10;;;;;;5071073;28;20036;-38
2023/06/06 06:25:20;;;;;;;12.60;6.38;;;22.70;97.90;;;;;;5071031;28;20161;-48
2023/06/06 06:27:47;;;;;;;12.40;6.40;;;22.70;98.50;;;;;;5070200;28;20079;-45
2023/06/06 06:30:13;;;;;;;11.00;6.45;;;22.90;98.70;;;;;;5069849;28;20123;-43
2023/06/06 06:32:41;;;;;;;12.20;6.32;;;23.20;98.50;;;;;;5071037;28;20050;-43
2023/06/06 06:35:11;;;;;;;10.57;6.13;;;23.90;98.10;;;;;;5071473;28;20044;-43
2023/06/06 06:37:37;;;;;;;10.13;5.70;;;23.90;97.30;;;;;;5069273;28;20087;-41
2023/06/06 06:40:12;;;;;;;8.25;5.45;;;23.60;96.90;;;;;;5069359;28;20407;-43
2023/06/06 06:42:44;;;;;;;9.73;5.60;;;24.50;96.90;;;;;;5070101;28;20037;-44
2023/06/06 06:45:12;;;;;;;;;;;23.80;96.50;;;;;;5071460;28;20049;-40
2023/06/06 06:47:38;;;;;;;7.43;5.05;;;23.80;96.60;;;;;;5069140;28;19920;-43
2023/06/06 06:50:04;;;;;;;8.80;5.55;;;24.10;97.30;;;;;;5068377;28;20459;-38
2023/06/06 06:52:33;;;;;;;10.18;5.70;;;24.20;96.30;;;;;;5070840;28;20040;-39
2023/06/06 06:55:01;;;;;;;11.30;5.40;;;24.30;96.70;;;;;;5068760;28;20109;-43
2023/06/06 06:57:28;;;;;;;9.55;6.18;;;24.20;96.20;;;;;;5069670;28;20044;-42
2023/06/06 06:59:58;;;;;;;11.38;5.38;;;24.20;96.30;;;;;;5052038;28;20048;-38
2023/06/06 07:02:28;;;;;;;9.05;5.28;;;23.60;95.90;;;;;;5071279;28;20130;-41
2023/06/06 07:04:57;;;;;;;22.75;6.00;;;24.10;96.50;;;;;;5071193;28;20479;-42
2023/06/06 07:07:23;;;;;;;25.17;6.47;;;24.80;96.20;;;;;;5069348;28;20483;-45
2023/06/06 07:09:49;;;;;;;32.90;6.07;;;24.10;95.60;;;;;;5069287;28;20159;-40
2023/06/06 07:12:14;;;;;;;10.85;5.57;;;24.80;96.20;;;;;;5069725;28;20123;-38
2023/06/06 07:14:40;;;;;;;6.55;4.95;;;25.40;95.50;;;;;;5066249;28;20105;-43
2023/06/06 07:17:09;;;;;;;8.18;5.47;;;25.50;95.50;;;;;;5061530;28;20159;-43
2023/06/06 07:19:36;;;;;;;9.23;5.40;;;24.80;94.60;;;;;;5055479;28;20147;-42
2023/06/06 07:22:05;;;;;;;10.95;5.88;;;24.20;95.60;;;;;;5060628;28;20044;-44
2023/06/06 07:24:32;;;;;;;11.50;5.70;;;23.00;97.00;;;;;;5059273;28;20503;-43
2023/06/06 07:26:58;;;;;;;11.18;6.05;;;22.80;98.00;;;;;;5058186;28;20122;-44
2023/06/06 07:29:26;;;;;;;10.57;5.70;;;21.90;98.40;;;;;;5054737;28;20123;-43
2023/06/06 07:31:53;;;;;;;12.88;5.70;;;21.90;99.50;;;;;;5062250;28;20480;-40
2023/06/06 07:34:19;;;;;;;11.98;6.03;;;21.90;99.70;;;;;;5073610;28;20052;-43
2023/06/06 07:36:44;;;;;;;8.73;5.45;;;21.80;99.80;;;;;;5067391;28;20533;-38
2023/06/06 07:39:10;;;;;;;9.73;5.53;;;22.00;99.90;;;;;;5053042;28;20402;-42
2023/06/06 07:41:38;;;;;;;11.65;4.97;;;21.90;99.90;;;;;;5073713;28;20048;-44
2023/06/06 07:44:04;;;;;;;7.13;5.22;;;21.90;99.70;;;;;;5065518;28;20068;-44
2023/06/06 07:46:29;;;;;;;9.30;5.28;;;21.60;98.80;;;;;;5073503;28;20135;-39
2023/06/06 07:48:55;;;;;;;12.82;5.20;;;21.40;99.80;;;;;;5072516;28;20348;-37
2023/06/06 07:51:21;;;;;;;9.10;4.80;;;21.60;99.40;;;;;;5068421;28;20170;-41
2023/06/06 07:53:46;;;;;;;9.73;5.32;;;21.70;99.30;;;;;;5073864;28;20048;-46
2023/06/06 07:56:16;;;;;;;9.23;5.20;;;21.60;99.60;;;;;;5074023;28;20040;-44
2023/06/06 07:58:46;;;;;;;11.25;4.65;;;21.60;99.70;;;;;;5074772;28;20039;-43
2023/06/06 08:01:13;;;;;;;9.63;4.93;;;21.70;99.90;;;;;;5072423;28;20506;-40
2023/06/06 08:03:39;;;;;;;11.75;5.13;;;21.30;99.90;;;;;;5073064;28;20104;-42
2023/06/06 08:06:05;;;;;;;11.93;4.90;;;21.20;99.90;;;;;;5073066;28;20100;-41
2023/06/06 08:08:31;;;;;;;7.80;5.03;;;21.30;99.90;;;;;;5073593;28;20048;-37
2023/06/06 08:10:57;;;;;;;10.98;5.40;;;21.40;99.90;;;;;;5072956;28;20047;-41
2023/06/06 08:13:22;;;;;;;10.20;5.47;;;21.30;99.90;;;;;;5073738;28;20063;-43
2023/06/06 08:15:48;;;;;;;12.30;5.40;;;20.90;99.90;;;;;;5073900;28;20389;-43
2023/06/06 08:18:14;;;;;;;11.40;5.20;;;20.70;99.90;;;;;;5073045;28;20080;-43
2023/06/06 08:20:40;;;;;;;8.82;5.47;;;20.30;99.90;;;;;;5072456;28;20086;-42
2023/06/06 08:23:06;;;;;;;9.38;5.75;;;19.80;99.90;;;;;;5073146;28;20119;-38
2023/06/06 08:25:32;;;;;;;9.82;5.32;;;19.80;99.90;;;;;;5072812;28;20125;-41
2023/06/06 08:27:58;;;;;;;10.27;5.10;;;20.10;99.90;;;;;;5071197;28;20268;-44
2023/06/06 08:30:24;;;;;;;9.82;5.30;;;20.10;99.90;;;;;;5071118;28;20051;-39
2023/06/06 08:32:50;;;;;;;9.73;5.13;;;20.40;99.90;;;;;;5072872;28;20161;-40
2023/06/06 08:35:19;;;;;;;9.05;5.32;;;20.60;99.90;;;;;;5073068;28;20056;-37
2023/06/06 08:37:47;;;;;;;8.30;5.72;;;20.70;99.90;;;;;;5060747;28;20135;-42
2023/06/06 08:40:13;;;;;;;8.57;5.40;;;20.80;99.90;;;;;;5062256;28;20138;-43
2023/06/06 08:42:44;;;;;;;11.23;6.07;;;20.90;99.90;;;;;;5070358;28;20044;-43
2023/06/06 08:45:10;;;;;;;11.85;5.80;;;20.70;99.90;;;;;;5073533;28;20147;-38
2023/06/06 08:47:36;;;;;;;14.00;7.15;;;20.50;99.90;;;;;;5076190;28;20040;-43
2023/06/06 08:50:04;;;;;;;12.55;6.43;;;20.20;99.90;;;;;;5068058;28;20550;-41
2023/06/06 08:52:36;;;;;;;11.32;6.07;;;19.80;99.90;;;;;;5075768;28;20036;-37
2023/06/06 08:55:03;;;;;;;9.82;5.78;;;19.90;99.90;;;;;;5076383;28;20404;-42
2023/06/06 08:57:29;;;;;;;11.70;6.40;;;19.90;99.90;;;;;;5074814;28;20548;-40
2023/06/06 08:59:54;;;;;;;8.55;5.72;;;20.00;99.90;;;;;;5075982;28;20048;-40
2023/06/06 09:02:22;;;;;;;15.15;5.47;;;20.40;99.90;;;;;;5075576;28;20055;-37
2023/06/06 09:04:48;;;;;;;11.90;5.05;;;20.50;99.90;;;;;;5077180;28;20480;-43
2023/06/06 09:07:15;;;;;;;10.93;5.13;;;20.70;99.90;;;;;;5074801;28;20079;-39
2023/06/06 09:09:43;;;;;;;7.20;5.40;;;20.80;99.90;;;;;;5075495;28;20070;-42
2023/06/06 09:12:09;;;;;;;12.68;7.03;;;20.60;99.90;;;;;;5076398;28;20071;-46
2023/06/06 09:14:35;;;;;;;12.20;6.50;;;20.30;99.90;;;;;;5076229;28;20044;-37
2023/06/06 09:17:02;;;;;;;13.32;5.50;;;20.70;99.90;;;;;;5076230;28;20044;-44
2023/06/06 09:19:29;;;;;;;10.07;5.22;;;20.80;99.90;;;;;;5076801;28;20047;-41
2023/06/06 09:21:59;;;;;;;9.43;6.40;;;21.00;99.90;;;;;;5076457;28;20566;-39
2023/06/06 09:24:24;;;;;;;8.32;5.22;;;20.70;99.90;;;;;;5075171;28;20058;-41
2023/06/06 09:26:50;;;;;;;10.35;5.80;;;20.90;99.90;;;;;;5073867;28;20044;-38
2023/06/06 09:29:16;;;;;;;8.90;5.95;;;20.90;99.90;;;;;;5074143;28;20040;-45
2023/06/06 09:31:42;;;;;;;9.20;5.40;;;21.10;99.90;;;;;;5076442;28;20048;-41
2023/06/06 09:34:09;;;;;;;11.00;6.65;;;21.30;99.90;;;;;;5074791;28;20036;-46
2023/06/06 09:36:40;;;;;;;10.65;6.75;;;21.30;99.90;;;;;;5072134;28;20055;-40
2023/06/06 09:39:16;;;;;;;11.35;6.93;;;21.10;99.90;;;;;;5058053;28;20492;-39
2023/06/06 09:41:45;;;;;;;10.98;7.70;;;21.30;99.90;;;;;;5089505;28;20545;-41
2023/06/06 09:44:25;;;;;;;9.00;7.15;;;21.40;99.90;;;;;;5067920;28;20119;-37
2023/06/06 09:47:02;;;;;;;14.27;7.30;;;20.90;99.90;;;;;;5075664;28;20047;-39
2023/06/06 09:49:34;;;;;;;8.60;6.93;;;20.60;99.90;;;;;;5070278;28;20049;-39
2023/06/06 09:51:59;;;;;;;13.55;7.32;;;20.60;99.90;;;;;;5074906;28;20040;-40
2023/06/06 09:54:25;;;;;;;12.80;7.60;;;20.40;99.90;;;;;;5074623;28;20044;-40
2023/06/06 09:56:52;;;;;;;14.82;7.20;;;20.10;99.90;;;;;;5074939;28;20043;-43
2023/06/06 09:59:23;;;;;;;10.75;6.85;;;20.30;99.90;;;;;;5074729;28;20101;-39
2023/06/06 10:01:53;;;;;;;11.55;7.38;;;20.40;99.90;;;;;;5075827;28;20047;-44
2023/06/06 10:04:19;;;;;;;16.50;8.52;;;20.70;99.90;;;;;;5075472;28;20379;-42
2023/06/06 10:06:46;;;;;;;11.60;7.63;;;20.60;99.90;;;;;;5073622;28;20048;-40
2023/06/06 10:09:12;;;;;;;10.63;7.45;;;20.50;99.90;;;;;;5075112;28;20048;-42
2023/06/06 10:11:39;;;;;;;10.10;6.78;;;20.40;99.90;;;;;;5074780;28;20527;-41
2023/06/06 10:14:06;;;;;;;12.77;7.32;;;20.40;99.90;;;;;;5072416;28;20051;-42
2023/06/06 10:16:35;;;;;;;13.73;8.35;;;20.30;99.90;;;;;;5073992;28;20123;-39
2023/06/06 10:19:01;;;;;;;12.43;7.97;;;20.10;99.90;;;;;;5073284;28;20055;-44
2023/06/06 10:21:28;;;;;;;11.95;7.68;;;20.40;99.90;;;;;;5074088;28;20052;-43
2023/06/06 10:23:54;;;;;;;10.30;7.18;;;20.20;99.90;;;;;;5074108;28;20599;-41
2023/06/06 10:26:57;;;;;;;13.00;7.07;;;20.10;99.90;;;;;;5072962;28;20060;-39
2023/06/06 10:29:31;;;;;;;13.87;7.53;;;20.10;99.90;;;;;;5074305;28;20055;-43
2023/06/06 10:32:12;;;;;;;11.63;7.60;;;20.20;99.90;;;;;;5074524;28;20510;-41
2023/06/06 10:34:40;;;;;;;10.23;7.55;;;20.30;99.90;;;;;;5075353;28;20136;-42
2023/06/06 10:37:17;;;;;;;11.18;7.28;;;20.40;99.90;;;;;;5066605;28;20036;-37
2023/06/06 10:39:46;;;;;;;9.20;6.55;;;20.70;99.90;;;;;;5059083;28;20046;-42
2023/06/06 10:42:12;;;;;;;10.75;6.88;;;20.80;99.90;;;;;;5072989;28;20060;-38
2023/06/06 10:44:54;;;;;;;10.80;6.70;;;21.00;99.90;;;;;;5066624;28;20050;-42
2023/06/06 10:47:23;;;;;;;13.40;7.47;;;21.20;99.90;;;;;;5061768;28;20105;-37
2023/06/06 10:50:08;;;;;;;11.57;6.47;;;21.00;99.90;;;;;;5065673;28;20052;-42
2023/06/06 10:53:06;;;;;;;8.63;6.10;;;21.00;99.90;;;;;;5073654;28;20044;-40
2023/06/06 10:55:32;;;;;;;11.13;6.68;;;20.90;99.90;;;;;;5070154;28;20163;-40
2023/06/06 10:58:10;;;;;;;13.45;6.30;;;21.00;99.90;;;;;;5073624;28;20117;-45
2023/06/06 11:00:42;;;;;;;10.45;7.32;;;21.10;99.90;;;;;;5073274;28;20074;-43
2023/06/06 11:03:10;;;;;;;11.23;7.13;;;20.90;99.90;;;;;;5073600;28;20048;-44
2023/06/06 11:06:01;;;;;;;14.15;7.50;;;20.50;99.90;;;;;;5072295;28;20159;-43
2023/06/06 11:08:42;;;;;;;11.55;8.07;;;20.40;99.90;;;;;;5072292;28;20396;-37
2023/06/06 11:11:21;;;;;;;11.73;7.82;;;20.20;99.90;;;;;;5072578;28;20848;-42
2023/06/06 11:14:05;;;;;;;13.18;8.20;;;20.50;99.90;;;;;;5073420;28;20435;-42
2023/06/06 11:16:40;;;;;;;13.13;9.23;;;20.70;99.90;;;;;;5072790;28;20482;-41
2023/06/06 11:19:11;;;;;;;15.45;9.35;;;20.50;99.90;;;;;;5072850;28;20129;-40
2023/06/06 11:21:40;;;;;;;11.25;7.80;;;20.30;99.90;;;;;;5071397;28;20138;-39
2023/06/06 11:24:09;;;;;;;12.45;8.55;;;20.60;99.90;;;;;;5072829;28;20055;-40
2023/06/06 11:26:41;;;;;;;15.35;8.98;;;20.80;99.90;;;;;;5073557;28;20356;-37
2023/06/06 11:29:08;;;;;;;12.70;7.97;;;20.30;99.90;;;;;;5073052;28;20044;-44
2023/06/06 11:31:35;;;;;;;15.50;8.65;;;20.50;99.90;;;;;;5071989;28;20056;-40
2023/06/06 11:34:09;;;;;;;13.80;8.98;;;20.70;99.90;;;;;;5073059;28;20083;-39
2023/06/06 11:36:38;;;;;;;12.27;8.45;;;20.70;99.90;;;;;;5068231;28;20392;-38
2023/06/06 11:39:05;;;;;;;16.15;9.18;;;20.90;99.90;;;;;;5053470;28;20043;-41
2023/06/06 11:41:36;;;;;;;11.63;9.05;;;20.90;99.90;;;;;;5072580;28;20081;-38
2023/06/06 11:44:02;;;;;;;17.25;10.00;;;20.70;99.90;;;;;;5064569;28;20445;-42
2023/06/06 11:46:30;;;;;;;12.07;10.32;;;20.30;99.90;;;;;;5072582;28;20522;-44
2023/06/06 11:49:00;;;;;;;13.15;9.23;;;20.30;99.90;;;;;;5071820;28;20519;-44
2023/06/06 11:51:26;;;;;;;16.33;9.32;;;20.60;99.90;;;;;;5067573;28;20051;-40
2023/06/06 11:53:52;;;;;;;16.73;10.38;;;20.50;99.90;;;;;;5073072;28;20101;-41
2023/06/06 11:56:19;;;;;;;13.98;10.43;;;20.30;99.90;;;;;;5072352;28;20614;-42
2023/06/06 11:58:45;;;;;;;14.88;8.77;;;20.30;99.90;;;;;;5072607;28;20110;-41
2023/06/06 12:01:15;;;;;;;14.27;9.77;;;20.60;99.90;;;;;;5070775;28;20567;-43
2023/06/06 12:03:41;;;;;;;14.45;9.68;;;20.50;99.90;;;;;;5057138;28;20044;-41
2023/06/06 12:06:08;;;;;;;14.25;10.23;;;20.70;99.90;;;;;;5052787;28;20473;-42
2023/06/06 12:08:37;;;;;;;15.60;10.68;;;20.50;99.90;;;;;;5049008;28;20067;-42
2023/06/06 12:11:22;;;;;;;19.33;10.82;;;20.20;99.90;;;;;;5056653;28;20055;-38
2023/06/06 12:13:48;;;;;;;15.32;9.60;;;20.00;99.90;;;;;;5066707;28;20048;-43
2023/06/06 12:16:40;;;;;;;14.77;9.27;;;20.20;99.90;;;;;;5066665;28;20043;-43
2023/06/06 12:19:16;;;;;;;16.02;9.23;;;20.30;99.90;;;;;;5063611;28;20700;-43
2023/06/06 12:21:47;;;;;;;11.13;8.75;;;20.00;99.90;;;;;;5072117;28;20063;-38
2023/06/06 12:24:20;;;;;;;14.55;8.82;;;19.90;99.90;;;;;;5064509;28;20052;-45
2023/06/06 12:26:53;;;;;;;13.20;8.77;;;20.10;99.90;;;;;;5069981;28;20047;-45
2023/06/06 12:29:20;;;;;;;10.45;7.72;;;20.10;99.90;;;;;;5064934;28;20052;-45
2023/06/06 12:31:49;;;;;;;15.95;8.23;;;20.20;99.90;;;;;;5070548;28;20056;-42
2023/06/06 12:34:14;;;;;;;12.88;7.72;;;20.30;99.90;;;;;;5068973;28;20522;-41
2023/06/06 12:36:41;;;;;;;15.50;8.20;;;20.30;99.90;;;;;;5067011;28;20118;-41
2023/06/06 12:39:11;;;;;;;13.15;8.63;;;20.40;99.90;;;;;;5066159;28;20506;-41
2023/06/06 12:41:41;;;;;;;14.48;8.48;;;20.20;99.90;;;;;;5100161;27;20451;-39
2023/06/06 12:44:15;;;;;;;12.45;8.73;;;20.30;99.90;;;;;;5065472;28;20043;-42
2023/06/06 12:46:45;;;;;;;15.05;9.70;;;20.40;99.90;;;;;;5069138;28;20508;-42